sensor_id;sensor_type;location;lat;lon;timestamp;P1;durP1;ratioP1;P2;durP2;ratioP2
43580;SDS011;29175;51.030;4.606;2023-11-18T00:00:26;60.67;;;22.15;;
43580;SDS011;29175;51.030;4.606;2023-11-18T00:02:53;58.03;;;22.33;;
43580;SDS011;29175;51.030;4.606;2023-11-18T00:05:19;54.25;;;21.25;;
43580;SDS011;29175;51.030;4.606;2023-11-18T00:07:47;57.92;;;22.13;;
43580;SDS011;29175;51.030;4.606;2023-11-18T00:10:13;58.28;;;23.00;;
43580;SDS011;29175;51.030;4.606;2023-11-18T00:12:39;57.63;;;22.70;;
43580;SDS011;29175;51.030;4.606;2023-11-18T00:15:07;47.70;;;21.98;;
43580;SDS011;29175;51.030;4.606;2023-11-18T00:17:37;51.90;;;21.63;;
43580;SDS011;29175;51.030;4.606;2023-11-18T00:20:04;61.25;;;23.15;;
43580;SDS011;29175;51.030;4.606;2023-11-18T00:22:35;54.75;;;22.20;;
43580;SDS011;29175;51.030;4.606;2023-11-18T00:25:02;56.05;;;22.92;;
43580;SDS011;29175;51.030;4.606;2023-11-18T00:27:35;59.70;;;22.42;;
43580;SDS011;29175;51.030;4.606;2023-11-18T00:30:03;55.90;;;22.73;;
43580;SDS011;29175;51.030;4.606;2023-11-18T00:32:39;59.03;;;24.33;;
43580;SDS011;29175;51.030;4.606;2023-11-18T00:35:05;54.30;;;22.45;;
43580;SDS011;29175;51.030;4.606;2023-11-18T00:37:33;57.70;;;23.08;;
43580;SDS011;29175;51.030;4.606;2023-11-18T00:39:59;58.88;;;24.23;;
43580;SDS011;29175;51.030;4.606;2023-11-18T00:42:25;66.40;;;23.55;;
43580;SDS011;29175;51.030;4.606;2023-11-18T00:44:52;63.65;;;23.17;;
43580;SDS011;29175;51.030;4.606;2023-11-18T00:47:20;48.80;;;17.30;;
43580;SDS011;29175;51.030;4.606;2023-11-18T00:49:48;58.42;;;21.75;;
43580;SDS011;29175;51.030;4.606;2023-11-18T00:52:14;55.42;;;22.27;;
43580;SDS011;29175;51.030;4.606;2023-11-18T00:54:40;57.80;;;21.75;;
43580;SDS011;29175;51.030;4.606;2023-11-18T00:57:07;63.05;;;23.08;;
43580;SDS011;29175;51.030;4.606;2023-11-18T00:59:33;56.50;;;21.60;;
43580;SDS011;29175;51.030;4.606;2023-11-18T01:01:59;61.75;;;22.02;;
43580;SDS011;29175;51.030;4.606;2023-11-18T01:04:25;52.75;;;20.75;;
43580;SDS011;29175;51.030;4.606;2023-11-18T01:06:51;56.92;;;21.88;;
43580;SDS011;29175;51.030;4.606;2023-11-18T01:09:18;54.17;;;21.70;;
43580;SDS011;29175;51.030;4.606;2023-11-18T01:11:44;63.75;;;23.17;;
43580;SDS011;29175;51.030;4.606;2023-11-18T01:16:39;58.38;;;22.23;;
43580;SDS011;29175;51.030;4.606;2023-11-18T01:19:06;57.50;;;22.88;;
43580;SDS011;29175;51.030;4.606;2023-11-18T01:21:35;60.25;;;23.15;;
43580;SDS011;29175;51.030;4.606;2023-11-18T01:24:03;62.38;;;23.13;;
43580;SDS011;29175;51.030;4.606;2023-11-18T01:26:31;63.47;;;24.80;;
43580;SDS011;29175;51.030;4.606;2023-11-18T01:28:59;58.88;;;22.73;;
43580;SDS011;29175;51.030;4.606;2023-11-18T01:31:24;58.85;;;23.33;;
43580;SDS011;29175;51.030;4.606;2023-11-18T01:33:50;65.80;;;23.27;;
43580;SDS011;29175;51.030;4.606;2023-11-18T01:36:17;66.05;;;22.73;;
43580;SDS011;29175;51.030;4.606;2023-11-18T01:38:45;65.43;;;24.48;;
43580;SDS011;29175;51.030;4.606;2023-11-18T01:41:12;61.15;;;22.80;;
43580;SDS011;29175;51.030;4.606;2023-11-18T01:43:39;66.97;;;23.75;;
43580;SDS011;29175;51.030;4.606;2023-11-18T01:46:05;54.75;;;23.23;;
43580;SDS011;29175;51.030;4.606;2023-11-18T01:48:36;69.20;;;24.30;;
43580;SDS011;29175;51.030;4.606;2023-11-18T01:51:04;62.95;;;23.20;;
43580;SDS011;29175;51.030;4.606;2023-11-18T01:53:34;65.78;;;23.35;;
43580;SDS011;29175;51.030;4.606;2023-11-18T01:56:02;63.70;;;22.73;;
43580;SDS011;29175;51.030;4.606;2023-11-18T01:58:30;67.65;;;23.00;;
43580;SDS011;29175;51.030;4.606;2023-11-18T02:01:02;73.13;;;23.88;;
43580;SDS011;29175;51.030;4.606;2023-11-18T02:03:33;58.80;;;21.55;;
43580;SDS011;29175;51.030;4.606;2023-11-18T02:05:59;63.28;;;22.08;;
43580;SDS011;29175;51.030;4.606;2023-11-18T02:08:27;68.07;;;24.23;;
43580;SDS011;29175;51.030;4.606;2023-11-18T02:11:10;72.90;;;22.38;;
43580;SDS011;29175;51.030;4.606;2023-11-18T02:13:44;63.80;;;22.55;;
43580;SDS011;29175;51.030;4.606;2023-11-18T02:16:14;70.68;;;23.52;;
43580;SDS011;29175;51.030;4.606;2023-11-18T02:18:41;58.85;;;22.60;;
43580;SDS011;29175;51.030;4.606;2023-11-18T02:23:37;65.38;;;22.70;;
43580;SDS011;29175;51.030;4.606;2023-11-18T02:26:03;74.57;;;23.25;;
43580;SDS011;29175;51.030;4.606;2023-11-18T02:28:30;60.33;;;22.10;;
43580;SDS011;29175;51.030;4.606;2023-11-18T02:31:01;62.28;;;21.70;;
43580;SDS011;29175;51.030;4.606;2023-11-18T02:33:36;54.55;;;21.77;;
43580;SDS011;29175;51.030;4.606;2023-11-18T02:36:20;56.88;;;23.02;;
43580;SDS011;29175;51.030;4.606;2023-11-18T02:39:01;52.30;;;22.75;;
43580;SDS011;29175;51.030;4.606;2023-11-18T02:41:34;57.88;;;21.27;;
43580;SDS011;29175;51.030;4.606;2023-11-18T02:44:03;55.27;;;21.63;;
43580;SDS011;29175;51.030;4.606;2023-11-18T02:46:34;60.00;;;22.23;;
43580;SDS011;29175;51.030;4.606;2023-11-18T02:49:03;58.33;;;21.80;;
43580;SDS011;29175;51.030;4.606;2023-11-18T02:51:30;68.57;;;21.75;;
43580;SDS011;29175;51.030;4.606;2023-11-18T02:54:08;54.80;;;20.25;;
43580;SDS011;29175;51.030;4.606;2023-11-18T02:56:37;56.88;;;21.48;;
43580;SDS011;29175;51.030;4.606;2023-11-18T02:59:05;65.22;;;22.00;;
43580;SDS011;29175;51.030;4.606;2023-11-18T03:01:32;63.53;;;21.05;;
43580;SDS011;29175;51.030;4.606;2023-11-18T03:04:05;61.88;;;21.67;;
43580;SDS011;29175;51.030;4.606;2023-11-18T03:06:32;63.05;;;21.48;;
43580;SDS011;29175;51.030;4.606;2023-11-18T03:08:59;58.42;;;20.67;;
43580;SDS011;29175;51.030;4.606;2023-11-18T03:11:25;46.42;;;18.60;;
43580;SDS011;29175;51.030;4.606;2023-11-18T03:16:25;54.30;;;20.23;;
43580;SDS011;29175;51.030;4.606;2023-11-18T03:18:54;70.05;;;22.05;;
43580;SDS011;29175;51.030;4.606;2023-11-18T03:21:23;55.70;;;19.73;;
43580;SDS011;29175;51.030;4.606;2023-11-18T03:23:49;50.67;;;20.65;;
43580;SDS011;29175;51.030;4.606;2023-11-18T03:26:16;50.33;;;20.00;;
43580;SDS011;29175;51.030;4.606;2023-11-18T03:28:42;52.00;;;19.60;;
43580;SDS011;29175;51.030;4.606;2023-11-18T03:31:09;43.65;;;20.08;;
43580;SDS011;29175;51.030;4.606;2023-11-18T03:33:37;57.13;;;19.73;;
43580;SDS011;29175;51.030;4.606;2023-11-18T03:36:03;57.33;;;19.92;;
43580;SDS011;29175;51.030;4.606;2023-11-18T03:38:30;56.45;;;20.85;;
43580;SDS011;29175;51.030;4.606;2023-11-18T03:40:57;51.50;;;21.25;;
43580;SDS011;29175;51.030;4.606;2023-11-18T03:43:24;56.00;;;20.25;;
43580;SDS011;29175;51.030;4.606;2023-11-18T03:45:51;52.78;;;19.80;;
43580;SDS011;29175;51.030;4.606;2023-11-18T03:48:23;49.83;;;19.67;;
43580;SDS011;29175;51.030;4.606;2023-11-18T03:50:49;61.40;;;20.23;;
43580;SDS011;29175;51.030;4.606;2023-11-18T03:53:16;43.67;;;19.00;;
43580;SDS011;29175;51.030;4.606;2023-11-18T03:55:43;51.88;;;20.42;;
43580;SDS011;29175;51.030;4.606;2023-11-18T03:58:10;53.90;;;19.80;;
43580;SDS011;29175;51.030;4.606;2023-11-18T04:00:37;58.00;;;21.63;;
43580;SDS011;29175;51.030;4.606;2023-11-18T04:03:03;55.10;;;18.83;;
43580;SDS011;29175;51.030;4.606;2023-11-18T04:05:31;36.27;;;14.43;;
43580;SDS011;29175;51.030;4.606;2023-11-18T04:07:57;61.28;;;21.60;;
43580;SDS011;29175;51.030;4.606;2023-11-18T04:10:24;54.58;;;19.02;;
43580;SDS011;29175;51.030;4.606;2023-11-18T04:12:49;51.85;;;18.65;;
43580;SDS011;29175;51.030;4.606;2023-11-18T04:15:15;55.53;;;19.25;;
43580;SDS011;29175;51.030;4.606;2023-11-18T04:17:41;50.65;;;19.17;;
43580;SDS011;29175;51.030;4.606;2023-11-18T04:20:09;54.08;;;19.83;;
43580;SDS011;29175;51.030;4.606;2023-11-18T04:22:40;50.13;;;17.27;;
43580;SDS011;29175;51.030;4.606;2023-11-18T04:25:09;47.97;;;18.63;;
43580;SDS011;29175;51.030;4.606;2023-11-18T04:27:39;53.13;;;18.00;;
43580;SDS011;29175;51.030;4.606;2023-11-18T04:30:06;46.13;;;19.05;;
43580;SDS011;29175;51.030;4.606;2023-11-18T04:32:34;52.17;;;17.83;;
43580;SDS011;29175;51.030;4.606;2023-11-18T04:35:00;56.97;;;17.60;;
43580;SDS011;29175;51.030;4.606;2023-11-18T04:37:33;52.75;;;16.70;;
43580;SDS011;29175;51.030;4.606;2023-11-18T04:40:01;42.75;;;16.77;;
43580;SDS011;29175;51.030;4.606;2023-11-18T04:42:27;49.90;;;15.90;;
43580;SDS011;29175;51.030;4.606;2023-11-18T04:44:54;47.35;;;16.80;;
43580;SDS011;29175;51.030;4.606;2023-11-18T04:47:24;44.58;;;16.02;;
43580;SDS011;29175;51.030;4.606;2023-11-18T04:49:52;44.63;;;15.48;;
43580;SDS011;29175;51.030;4.606;2023-11-18T04:52:19;45.92;;;17.35;;
43580;SDS011;29175;51.030;4.606;2023-11-18T04:54:44;43.53;;;15.82;;
43580;SDS011;29175;51.030;4.606;2023-11-18T04:57:13;43.60;;;15.27;;
43580;SDS011;29175;51.030;4.606;2023-11-18T04:59:41;39.50;;;15.02;;
43580;SDS011;29175;51.030;4.606;2023-11-18T05:02:08;39.40;;;14.53;;
43580;SDS011;29175;51.030;4.606;2023-11-18T05:04:33;41.25;;;15.00;;
43580;SDS011;29175;51.030;4.606;2023-11-18T05:06:59;39.60;;;12.75;;
43580;SDS011;29175;51.030;4.606;2023-11-18T05:09:24;31.30;;;13.48;;
43580;SDS011;29175;51.030;4.606;2023-11-18T05:11:50;44.08;;;14.07;;
43580;SDS011;29175;51.030;4.606;2023-11-18T05:14:16;35.08;;;13.45;;
43580;SDS011;29175;51.030;4.606;2023-11-18T05:16:42;34.78;;;13.52;;
43580;SDS011;29175;51.030;4.606;2023-11-18T05:19:07;48.10;;;14.10;;
43580;SDS011;29175;51.030;4.606;2023-11-18T05:21:33;44.67;;;14.18;;
43580;SDS011;29175;51.030;4.606;2023-11-18T05:23:59;38.45;;;13.10;;
43580;SDS011;29175;51.030;4.606;2023-11-18T05:26:24;38.35;;;13.82;;
43580;SDS011;29175;51.030;4.606;2023-11-18T05:28:53;37.72;;;14.18;;
43580;SDS011;29175;51.030;4.606;2023-11-18T05:31:19;50.20;;;17.15;;
43580;SDS011;29175;51.030;4.606;2023-11-18T05:33:45;44.25;;;16.23;;
43580;SDS011;29175;51.030;4.606;2023-11-18T05:36:18;44.03;;;13.60;;
43580;SDS011;29175;51.030;4.606;2023-11-18T05:38:52;39.28;;;12.32;;
43580;SDS011;29175;51.030;4.606;2023-11-18T05:41:17;37.83;;;11.40;;
43580;SDS011;29175;51.030;4.606;2023-11-18T05:43:52;44.05;;;11.15;;
43580;SDS011;29175;51.030;4.606;2023-11-18T05:46:24;32.50;;;11.40;;
43580;SDS011;29175;51.030;4.606;2023-11-18T05:48:53;30.98;;;9.00;;
43580;SDS011;29175;51.030;4.606;2023-11-18T05:51:23;32.10;;;9.77;;
43580;SDS011;29175;51.030;4.606;2023-11-18T05:53:50;27.40;;;9.73;;
43580;SDS011;29175;51.030;4.606;2023-11-18T05:56:17;30.33;;;9.55;;
43580;SDS011;29175;51.030;4.606;2023-11-18T05:58:43;32.03;;;8.95;;
43580;SDS011;29175;51.030;4.606;2023-11-18T06:01:09;26.00;;;8.75;;
43580;SDS011;29175;51.030;4.606;2023-11-18T06:03:36;24.92;;;8.40;;
43580;SDS011;29175;51.030;4.606;2023-11-18T06:06:13;24.13;;;7.55;;
43580;SDS011;29175;51.030;4.606;2023-11-18T06:08:41;30.45;;;8.77;;
43580;SDS011;29175;51.030;4.606;2023-11-18T06:11:08;27.05;;;8.18;;
43580;SDS011;29175;51.030;4.606;2023-11-18T06:13:55;32.70;;;8.23;;
43580;SDS011;29175;51.030;4.606;2023-11-18T06:16:24;29.98;;;7.88;;
43580;SDS011;29175;51.030;4.606;2023-11-18T06:18:51;23.80;;;7.63;;
43580;SDS011;29175;51.030;4.606;2023-11-18T06:21:19;23.33;;;7.30;;
43580;SDS011;29175;51.030;4.606;2023-11-18T06:23:50;28.98;;;7.20;;
43580;SDS011;29175;51.030;4.606;2023-11-18T06:26:17;29.02;;;8.13;;
43580;SDS011;29175;51.030;4.606;2023-11-18T06:28:44;32.25;;;7.72;;
43580;SDS011;29175;51.030;4.606;2023-11-18T06:31:11;30.20;;;7.50;;
43580;SDS011;29175;51.030;4.606;2023-11-18T06:33:46;23.92;;;7.20;;
43580;SDS011;29175;51.030;4.606;2023-11-18T06:36:22;22.17;;;7.80;;
43580;SDS011;29175;51.030;4.606;2023-11-18T06:38:50;21.20;;;6.80;;
43580;SDS011;29175;51.030;4.606;2023-11-18T06:41:18;26.65;;;7.20;;
43580;SDS011;29175;51.030;4.606;2023-11-18T06:43:49;25.90;;;6.88;;
43580;SDS011;29175;51.030;4.606;2023-11-18T06:46:21;21.63;;;6.68;;
43580;SDS011;29175;51.030;4.606;2023-11-18T06:48:51;22.23;;;6.90;;
43580;SDS011;29175;51.030;4.606;2023-11-18T06:51:24;27.67;;;6.85;;
43580;SDS011;29175;51.030;4.606;2023-11-18T06:53:51;22.95;;;6.80;;
43580;SDS011;29175;51.030;4.606;2023-11-18T06:56:17;22.67;;;6.30;;
43580;SDS011;29175;51.030;4.606;2023-11-18T06:58:43;21.50;;;6.50;;
43580;SDS011;29175;51.030;4.606;2023-11-18T07:01:13;19.55;;;5.45;;
43580;SDS011;29175;51.030;4.606;2023-11-18T07:03:42;31.95;;;6.35;;
43580;SDS011;29175;51.030;4.606;2023-11-18T07:06:10;25.25;;;6.60;;
43580;SDS011;29175;51.030;4.606;2023-11-18T07:08:40;16.98;;;6.00;;
43580;SDS011;29175;51.030;4.606;2023-11-18T07:11:07;20.70;;;6.47;;
43580;SDS011;29175;51.030;4.606;2023-11-18T07:13:33;22.25;;;6.43;;
43580;SDS011;29175;51.030;4.606;2023-11-18T07:15:59;26.83;;;5.85;;
43580;SDS011;29175;51.030;4.606;2023-11-18T07:21:00;21.88;;;6.18;;
43580;SDS011;29175;51.030;4.606;2023-11-18T07:23:31;14.80;;;5.15;;
43580;SDS011;29175;51.030;4.606;2023-11-18T07:25:57;18.08;;;5.25;;
43580;SDS011;29175;51.030;4.606;2023-11-18T07:28:24;19.27;;;5.43;;
43580;SDS011;29175;51.030;4.606;2023-11-18T07:30:53;22.33;;;5.90;;
43580;SDS011;29175;51.030;4.606;2023-11-18T07:33:19;25.23;;;5.63;;
43580;SDS011;29175;51.030;4.606;2023-11-18T07:35:45;11.40;;;4.38;;
43580;SDS011;29175;51.030;4.606;2023-11-18T07:38:13;17.45;;;4.82;;
43580;SDS011;29175;51.030;4.606;2023-11-18T07:40:46;15.70;;;5.10;;
43580;SDS011;29175;51.030;4.606;2023-11-18T07:43:14;9.95;;;4.32;;
43580;SDS011;29175;51.030;4.606;2023-11-18T07:45:40;16.00;;;4.65;;
43580;SDS011;29175;51.030;4.606;2023-11-18T07:50:38;19.60;;;5.93;;
43580;SDS011;29175;51.030;4.606;2023-11-18T07:53:09;23.75;;;5.13;;
43580;SDS011;29175;51.030;4.606;2023-11-18T07:55:36;16.95;;;4.78;;
43580;SDS011;29175;51.030;4.606;2023-11-18T07:58:11;17.95;;;5.45;;
43580;SDS011;29175;51.030;4.606;2023-11-18T08:00:40;20.23;;;5.20;;
43580;SDS011;29175;51.030;4.606;2023-11-18T08:03:10;22.02;;;5.38;;
43580;SDS011;29175;51.030;4.606;2023-11-18T08:08:12;20.83;;;5.90;;
43580;SDS011;29175;51.030;4.606;2023-11-18T08:10:40;24.45;;;5.00;;
43580;SDS011;29175;51.030;4.606;2023-11-18T08:13:07;17.20;;;5.65;;
43580;SDS011;29175;51.030;4.606;2023-11-18T08:15:37;21.55;;;4.97;;
43580;SDS011;29175;51.030;4.606;2023-11-18T08:18:04;27.65;;;5.78;;
43580;SDS011;29175;51.030;4.606;2023-11-18T08:20:31;19.20;;;4.90;;
43580;SDS011;29175;51.030;4.606;2023-11-18T08:22:57;21.15;;;5.07;;
43580;SDS011;29175;51.030;4.606;2023-11-18T08:25:23;18.88;;;4.80;;
43580;SDS011;29175;51.030;4.606;2023-11-18T08:27:49;18.63;;;6.05;;
43580;SDS011;29175;51.030;4.606;2023-11-18T08:30:15;31.88;;;6.22;;
43580;SDS011;29175;51.030;4.606;2023-11-18T08:32:43;21.92;;;5.57;;
43580;SDS011;29175;51.030;4.606;2023-11-18T08:35:10;22.42;;;5.40;;
43580;SDS011;29175;51.030;4.606;2023-11-18T08:37:41;19.17;;;6.15;;
43580;SDS011;29175;51.030;4.606;2023-11-18T08:40:11;23.77;;;6.22;;
43580;SDS011;29175;51.030;4.606;2023-11-18T08:42:43;18.70;;;5.50;;
43580;SDS011;29175;51.030;4.606;2023-11-18T08:45:18;25.30;;;5.78;;
43580;SDS011;29175;51.030;4.606;2023-11-18T08:47:46;21.73;;;6.70;;
43580;SDS011;29175;51.030;4.606;2023-11-18T08:50:17;22.10;;;6.28;;
43580;SDS011;29175;51.030;4.606;2023-11-18T08:55:13;25.07;;;5.73;;
43580;SDS011;29175;51.030;4.606;2023-11-18T08:57:46;17.85;;;5.78;;
43580;SDS011;29175;51.030;4.606;2023-11-18T09:00:27;28.65;;;6.28;;
43580;SDS011;29175;51.030;4.606;2023-11-18T09:03:10;23.88;;;5.85;;
43580;SDS011;29175;51.030;4.606;2023-11-18T09:05:43;19.60;;;6.65;;
43580;SDS011;29175;51.030;4.606;2023-11-18T09:08:22;25.38;;;6.85;;
43580;SDS011;29175;51.030;4.606;2023-11-18T09:11:00;28.27;;;6.65;;
43580;SDS011;29175;51.030;4.606;2023-11-18T09:13:28;15.93;;;5.70;;
43580;SDS011;29175;51.030;4.606;2023-11-18T09:15:58;17.83;;;6.13;;
43580;SDS011;29175;51.030;4.606;2023-11-18T09:18:27;15.52;;;5.97;;
43580;SDS011;29175;51.030;4.606;2023-11-18T09:20:55;15.60;;;5.13;;
43580;SDS011;29175;51.030;4.606;2023-11-18T09:23:24;23.47;;;5.93;;
43580;SDS011;29175;51.030;4.606;2023-11-18T09:25:51;25.15;;;5.82;;
43580;SDS011;29175;51.030;4.606;2023-11-18T09:28:24;24.80;;;6.00;;
43580;SDS011;29175;51.030;4.606;2023-11-18T09:30:54;29.58;;;5.75;;
43580;SDS011;29175;51.030;4.606;2023-11-18T09:33:24;20.20;;;5.90;;
43580;SDS011;29175;51.030;4.606;2023-11-18T09:35:52;20.05;;;5.78;;
43580;SDS011;29175;51.030;4.606;2023-11-18T09:38:26;15.50;;;6.00;;
43580;SDS011;29175;51.030;4.606;2023-11-18T09:40:57;22.95;;;6.50;;
43580;SDS011;29175;51.030;4.606;2023-11-18T09:43:31;18.98;;;6.30;;
43580;SDS011;29175;51.030;4.606;2023-11-18T09:46:14;19.77;;;5.65;;
43580;SDS011;29175;51.030;4.606;2023-11-18T09:48:59;23.33;;;6.20;;
43580;SDS011;29175;51.030;4.606;2023-11-18T09:51:55;17.83;;;5.72;;
43580;SDS011;29175;51.030;4.606;2023-11-18T09:54:26;19.10;;;6.38;;
43580;SDS011;29175;51.030;4.606;2023-11-18T10:02:48;18.70;;;5.43;;
43580;SDS011;29175;51.030;4.606;2023-11-18T10:05:15;25.42;;;6.90;;
43580;SDS011;29175;51.030;4.606;2023-11-18T10:07:45;19.58;;;6.10;;
43580;SDS011;29175;51.030;4.606;2023-11-18T10:10:17;17.70;;;6.05;;
43580;SDS011;29175;51.030;4.606;2023-11-18T10:12:47;20.83;;;6.97;;
43580;SDS011;29175;51.030;4.606;2023-11-18T10:15:23;19.10;;;6.07;;
43580;SDS011;29175;51.030;4.606;2023-11-18T10:17:50;13.30;;;5.68;;
43580;SDS011;29175;51.030;4.606;2023-11-18T10:20:42;14.63;;;5.95;;
43580;SDS011;29175;51.030;4.606;2023-11-18T10:23:13;19.48;;;6.22;;
43580;SDS011;29175;51.030;4.606;2023-11-18T10:25:48;20.98;;;6.07;;
43580;SDS011;29175;51.030;4.606;2023-11-18T10:28:36;15.35;;;6.32;;
43580;SDS011;29175;51.030;4.606;2023-11-18T10:31:03;16.15;;;6.53;;
43580;SDS011;29175;51.030;4.606;2023-11-18T10:33:36;14.23;;;6.35;;
43580;SDS011;29175;51.030;4.606;2023-11-18T10:36:07;17.15;;;6.00;;
43580;SDS011;29175;51.030;4.606;2023-11-18T10:38:47;14.32;;;5.68;;
43580;SDS011;29175;51.030;4.606;2023-11-18T10:41:26;18.60;;;6.38;;
43580;SDS011;29175;51.030;4.606;2023-11-18T10:44:05;24.25;;;6.53;;
43580;SDS011;29175;51.030;4.606;2023-11-18T10:46:33;14.70;;;6.28;;
43580;SDS011;29175;51.030;4.606;2023-11-18T10:49:00;22.73;;;6.20;;
43580;SDS011;29175;51.030;4.606;2023-11-18T10:51:27;20.73;;;5.80;;
43580;SDS011;29175;51.030;4.606;2023-11-18T10:53:55;21.48;;;6.22;;
43580;SDS011;29175;51.030;4.606;2023-11-18T10:56:26;15.30;;;5.88;;
43580;SDS011;29175;51.030;4.606;2023-11-18T10:58:57;12.93;;;6.10;;
43580;SDS011;29175;51.030;4.606;2023-11-18T11:01:29;21.50;;;6.43;;
43580;SDS011;29175;51.030;4.606;2023-11-18T11:03:57;14.38;;;5.93;;
43580;SDS011;29175;51.030;4.606;2023-11-18T11:06:26;12.57;;;5.18;;
43580;SDS011;29175;51.030;4.606;2023-11-18T11:08:56;20.05;;;5.45;;
43580;SDS011;29175;51.030;4.606;2023-11-18T11:13:55;15.07;;;5.10;;
43580;SDS011;29175;51.030;4.606;2023-11-18T11:16:23;18.92;;;5.47;;
43580;SDS011;29175;51.030;4.606;2023-11-18T11:18:56;17.33;;;5.68;;
43580;SDS011;29175;51.030;4.606;2023-11-18T11:21:37;26.35;;;6.22;;
43580;SDS011;29175;51.030;4.606;2023-11-18T11:24:19;23.15;;;6.38;;
43580;SDS011;29175;51.030;4.606;2023-11-18T11:29:54;10.43;;;5.72;;
43580;SDS011;29175;51.030;4.606;2023-11-18T11:32:39;13.32;;;4.93;;
43580;SDS011;29175;51.030;4.606;2023-11-18T11:35:29;22.93;;;5.80;;
43580;SDS011;29175;51.030;4.606;2023-11-18T11:37:59;14.70;;;4.75;;
43580;SDS011;29175;51.030;4.606;2023-11-18T11:40:32;12.70;;;5.18;;
43580;SDS011;29175;51.030;4.606;2023-11-18T11:43:00;14.15;;;5.05;;
43580;SDS011;29175;51.030;4.606;2023-11-18T11:45:29;13.45;;;4.30;;
43580;SDS011;29175;51.030;4.606;2023-11-18T11:47:57;14.70;;;4.75;;
43580;SDS011;29175;51.030;4.606;2023-11-18T11:56:44;12.93;;;4.15;;
43580;SDS011;29175;51.030;4.606;2023-11-18T11:59:13;10.50;;;4.35;;
43580;SDS011;29175;51.030;4.606;2023-11-18T12:02:02;10.82;;;4.25;;
43580;SDS011;29175;51.030;4.606;2023-11-18T12:04:32;12.88;;;4.90;;
43580;SDS011;29175;51.030;4.606;2023-11-18T12:07:03;7.93;;;3.72;;
43580;SDS011;29175;51.030;4.606;2023-11-18T12:09:37;9.95;;;4.18;;
43580;SDS011;29175;51.030;4.606;2023-11-18T12:14:39;8.02;;;3.35;;
43580;SDS011;29175;51.030;4.606;2023-11-18T12:18:11;7.40;;;3.30;;
43580;SDS011;29175;51.030;4.606;2023-11-18T12:20:39;6.72;;;3.00;;
43580;SDS011;29175;51.030;4.606;2023-11-18T12:23:22;5.85;;;2.92;;
43580;SDS011;29175;51.030;4.606;2023-11-18T12:25:51;8.88;;;3.22;;
43580;SDS011;29175;51.030;4.606;2023-11-18T12:30:52;7.85;;;3.20;;
43580;SDS011;29175;51.030;4.606;2023-11-18T12:33:26;6.63;;;2.58;;
43580;SDS011;29175;51.030;4.606;2023-11-18T12:41:34;6.15;;;2.25;;
43580;SDS011;29175;51.030;4.606;2023-11-18T12:46:54;7.47;;;2.72;;
43580;SDS011;29175;51.030;4.606;2023-11-18T12:49:36;4.35;;;2.58;;
43580;SDS011;29175;51.030;4.606;2023-11-18T12:52:06;6.05;;;2.40;;
43580;SDS011;29175;51.030;4.606;2023-11-18T12:54:38;4.68;;;2.30;;
43580;SDS011;29175;51.030;4.606;2023-11-18T12:57:09;7.85;;;2.63;;
43580;SDS011;29175;51.030;4.606;2023-11-18T12:59:40;4.90;;;2.30;;
43580;SDS011;29175;51.030;4.606;2023-11-18T13:02:07;5.18;;;2.10;;
43580;SDS011;29175;51.030;4.606;2023-11-18T13:04:39;3.80;;;2.53;;
43580;SDS011;29175;51.030;4.606;2023-11-18T13:07:05;5.15;;;2.00;;
43580;SDS011;29175;51.030;4.606;2023-11-18T13:09:37;5.65;;;2.05;;
43580;SDS011;29175;51.030;4.606;2023-11-18T13:12:04;3.97;;;2.30;;
43580;SDS011;29175;51.030;4.606;2023-11-18T13:14:33;4.50;;;2.30;;
43580;SDS011;29175;51.030;4.606;2023-11-18T13:17:08;5.10;;;2.33;;
43580;SDS011;29175;51.030;4.606;2023-11-18T13:19:36;4.18;;;2.17;;
43580;SDS011;29175;51.030;4.606;2023-11-18T13:22:03;8.50;;;2.70;;
43580;SDS011;29175;51.030;4.606;2023-11-18T13:24:34;3.20;;;1.63;;
43580;SDS011;29175;51.030;4.606;2023-11-18T13:27:02;0.60;;;0.60;;
43580;SDS011;29175;51.030;4.606;2023-11-18T13:29:30;0.57;;;0.57;;
43580;SDS011;29175;51.030;4.606;2023-11-18T13:31:57;0.60;;;0.60;;
43580;SDS011;29175;51.030;4.606;2023-11-18T13:34:25;0.57;;;0.57;;
43580;SDS011;29175;51.030;4.606;2023-11-18T13:36:55;0.75;;;0.75;;
43580;SDS011;29175;51.030;4.606;2023-11-18T13:39:20;0.95;;;0.95;;
43580;SDS011;29175;51.030;4.606;2023-11-18T13:41:48;0.68;;;0.68;;
43580;SDS011;29175;51.030;4.606;2023-11-18T13:44:33;0.60;;;0.60;;
43580;SDS011;29175;51.030;4.606;2023-11-18T13:47:09;0.60;;;0.60;;
43580;SDS011;29175;51.030;4.606;2023-11-18T13:49:40;0.50;;;0.50;;
43580;SDS011;29175;51.030;4.606;2023-11-18T13:52:08;1.05;;;1.05;;
43580;SDS011;29175;51.030;4.606;2023-11-18T13:54:37;0.60;;;0.60;;
43580;SDS011;29175;51.030;4.606;2023-11-18T13:57:05;0.60;;;0.60;;
43580;SDS011;29175;51.030;4.606;2023-11-18T13:59:32;0.60;;;0.60;;
43580;SDS011;29175;51.030;4.606;2023-11-18T14:02:00;1.02;;;1.02;;
43580;SDS011;29175;51.030;4.606;2023-11-18T14:07:02;0.60;;;0.60;;
43580;SDS011;29175;51.030;4.606;2023-11-18T14:09:34;0.70;;;0.70;;
43580;SDS011;29175;51.030;4.606;2023-11-18T14:12:02;0.60;;;0.60;;
43580;SDS011;29175;51.030;4.606;2023-11-18T14:14:32;0.60;;;0.60;;
43580;SDS011;29175;51.030;4.606;2023-11-18T14:17:00;0.70;;;0.70;;
43580;SDS011;29175;51.030;4.606;2023-11-18T14:19:28;0.60;;;0.60;;
43580;SDS011;29175;51.030;4.606;2023-11-18T14:21:55;0.60;;;0.60;;
43580;SDS011;29175;51.030;4.606;2023-11-18T14:24:21;0.50;;;0.50;;
43580;SDS011;29175;51.030;4.606;2023-11-18T14:26:53;0.70;;;0.70;;
43580;SDS011;29175;51.030;4.606;2023-11-18T14:29:22;2.25;;;1.50;;
43580;SDS011;29175;51.030;4.606;2023-11-18T14:31:48;0.60;;;0.60;;
43580;SDS011;29175;51.030;4.606;2023-11-18T14:34:15;0.50;;;0.50;;
43580;SDS011;29175;51.030;4.606;2023-11-18T14:36:42;0.60;;;0.60;;
43580;SDS011;29175;51.030;4.606;2023-11-18T14:39:12;0.60;;;0.60;;
43580;SDS011;29175;51.030;4.606;2023-11-18T14:41:42;0.60;;;0.60;;
43580;SDS011;29175;51.030;4.606;2023-11-18T14:44:09;0.60;;;0.60;;
43580;SDS011;29175;51.030;4.606;2023-11-18T14:46:35;0.60;;;0.60;;
43580;SDS011;29175;51.030;4.606;2023-11-18T14:49:04;0.60;;;0.60;;
43580;SDS011;29175;51.030;4.606;2023-11-18T14:51:36;0.60;;;0.60;;
43580;SDS011;29175;51.030;4.606;2023-11-18T14:54:03;0.50;;;0.50;;
43580;SDS011;29175;51.030;4.606;2023-11-18T14:56:31;0.60;;;0.60;;
43580;SDS011;29175;51.030;4.606;2023-11-18T14:58:58;0.68;;;0.68;;
43580;SDS011;29175;51.030;4.606;2023-11-18T15:01:26;0.50;;;0.50;;
43580;SDS011;29175;51.030;4.606;2023-11-18T15:03:51;0.50;;;0.50;;
43580;SDS011;29175;51.030;4.606;2023-11-18T15:06:25;0.60;;;0.60;;
43580;SDS011;29175;51.030;4.606;2023-11-18T15:08:53;0.60;;;0.60;;
43580;SDS011;29175;51.030;4.606;2023-11-18T15:11:25;0.73;;;0.73;;
43580;SDS011;29175;51.030;4.606;2023-11-18T15:13:51;3.75;;;1.65;;
43580;SDS011;29175;51.030;4.606;2023-11-18T15:16:19;3.75;;;1.90;;
43580;SDS011;29175;51.030;4.606;2023-11-18T15:18:45;2.97;;;1.98;;
43580;SDS011;29175;51.030;4.606;2023-11-18T15:21:14;4.65;;;1.75;;
43580;SDS011;29175;51.030;4.606;2023-11-18T15:23:42;2.05;;;1.65;;
43580;SDS011;29175;51.030;4.606;2023-11-18T15:26:08;1.90;;;1.77;;
43580;SDS011;29175;51.030;4.606;2023-11-18T15:28:35;2.67;;;1.50;;
43580;SDS011;29175;51.030;4.606;2023-11-18T15:31:02;3.42;;;2.00;;
43580;SDS011;29175;51.030;4.606;2023-11-18T15:33:31;3.50;;;2.08;;
43580;SDS011;29175;51.030;4.606;2023-11-18T15:35:57;3.38;;;1.50;;
43580;SDS011;29175;51.030;4.606;2023-11-18T15:38:22;2.97;;;1.70;;